createdAt,value
2023-05-20T00:00:06.698Z,15.03
2023-05-20T00:03:11.852Z,15.08
2023-05-20T00:06:14.380Z,15.14
2023-05-20T00:09:17.240Z,15.13
2023-05-20T00:12:19.703Z,15.15
2023-05-20T00:15:22.557Z,15.12
2023-05-20T00:18:25.086Z,15.10
2023-05-20T00:21:27.392Z,15.16
2023-05-20T00:24:31.967Z,15.09
2023-05-20T00:27:35.508Z,15.09
2023-05-20T00:30:40.828Z,15.02
2023-05-20T00:33:42.966Z,15.02
2023-05-20T00:36:45.600Z,15.09
2023-05-20T00:39:47.691Z,14.98
2023-05-20T00:42:51.063Z,15.07
2023-05-20T00:45:54.403Z,14.91
2023-05-20T00:48:57.782Z,14.88
2023-05-20T00:52:00.141Z,14.85
2023-05-20T00:55:04.528Z,14.84
2023-05-20T00:58:06.639Z,14.74
2023-05-20T01:01:10.457Z,14.71
2023-05-20T01:04:12.890Z,14.66
2023-05-20T01:07:16.657Z,14.69
2023-05-20T01:10:19.112Z,14.60
2023-05-20T01:13:24.457Z,14.56
2023-05-20T01:16:29.061Z,14.53
2023-05-20T01:19:36.027Z,14.49
2023-05-20T01:22:40.347Z,14.46
2023-05-20T01:25:44.573Z,14.44
2023-05-20T01:28:51.102Z,14.34
2023-05-20T01:31:55.217Z,14.34
2023-05-20T01:35:00.099Z,14.32
2023-05-20T01:38:03.422Z,14.31
2023-05-20T01:41:07.589Z,14.37
2023-05-20T01:44:10.346Z,14.21
2023-05-20T01:47:13.508Z,14.26
2023-05-20T01:50:16.875Z,14.15
2023-05-20T01:53:18.925Z,14.16
2023-05-20T01:56:22.383Z,14.20
2023-05-20T01:59:24.905Z,14.21
2023-05-20T02:02:27.685Z,14.23
2023-05-20T02:05:30.858Z,14.30
2023-05-20T02:08:35.882Z,14.45
2023-05-20T02:11:38.298Z,14.40
2023-05-20T02:14:48.391Z,14.43
2023-05-20T02:17:50.991Z,14.47
2023-05-20T02:20:56.824Z,14.51
2023-05-20T02:23:59.350Z,14.48
2023-05-20T02:27:03.428Z,14.37
2023-05-20T02:30:06.123Z,14.37
2023-05-20T02:33:12.143Z,14.38
2023-05-20T02:36:15.425Z,14.30
2023-05-20T02:39:17.456Z,14.22
2023-05-20T02:42:22.100Z,14.18
2023-05-20T02:45:24.747Z,14.23
2023-05-20T02:48:29.471Z,14.20
2023-05-20T02:51:34.617Z,14.22
2023-05-20T02:54:37.030Z,14.16
2023-05-20T02:57:39.362Z,14.10
2023-05-20T03:00:49.232Z,14.11
2023-05-20T03:03:56.252Z,14.06
2023-05-20T03:07:01.858Z,14.10
2023-05-20T03:10:05.104Z,14.12
2023-05-20T03:13:14.322Z,14.21
2023-05-20T03:16:20.027Z,14.19
2023-05-20T03:19:22.709Z,14.22
2023-05-20T03:22:24.731Z,14.31
2023-05-20T03:25:27.183Z,14.32
2023-05-20T03:28:29.867Z,14.36
2023-05-20T03:31:34.719Z,14.45
2023-05-20T03:34:36.807Z,14.53
2023-05-20T03:37:39.890Z,14.57
2023-05-20T03:40:43.310Z,14.57
2023-05-20T03:43:48.694Z,14.71
2023-05-20T03:46:50.986Z,14.73
2023-05-20T03:49:57.279Z,14.75
2023-05-20T03:53:01.801Z,14.80
2023-05-20T03:56:05.186Z,14.85
2023-05-20T03:59:09.569Z,14.98
2023-05-20T04:02:14.275Z,15.10
2023-05-20T04:05:18.613Z,15.08
2023-05-20T04:08:24.747Z,15.26
2023-05-20T04:11:29.349Z,15.31
2023-05-20T04:14:32.631Z,15.52
2023-05-20T04:17:38.469Z,15.69
2023-05-20T04:20:42.184Z,15.83
2023-05-20T04:23:49.758Z,16.11
2023-05-20T04:26:52.340Z,16.23
2023-05-20T04:29:55.937Z,16.42
2023-05-20T04:32:59.569Z,16.61
2023-05-20T04:36:03.124Z,17.00
2023-05-20T04:39:08.101Z,17.81
2023-05-20T04:42:10.811Z,19.17
2023-05-20T04:45:13.865Z,20.73
2023-05-20T04:48:16.607Z,22.30
2023-05-20T04:51:21.008Z,22.94
2023-05-20T04:54:23.606Z,23.96
2023-05-20T04:57:26.071Z,24.99
2023-05-20T05:00:28.951Z,25.52
2023-05-20T05:03:35.171Z,25.99
2023-05-20T05:06:41.716Z,26.70
2023-05-20T05:09:48.200Z,27.22
2023-05-20T05:12:50.654Z,27.89
2023-05-20T05:15:59.749Z,28.53
2023-05-20T05:19:02.728Z,28.32
2023-05-20T05:22:06.872Z,28.55
2023-05-20T05:25:13.541Z,28.59
2023-05-20T05:28:19.098Z,29.15
2023-05-20T05:31:23.011Z,28.84
2023-05-20T05:34:27.876Z,29.03
2023-05-20T05:37:30.324Z,29.19
2023-05-20T05:40:33.843Z,29.34
2023-05-20T05:43:38.727Z,29.93
2023-05-20T05:46:41.740Z,30.10
2023-05-20T05:49:44.508Z,30.50
2023-05-20T05:52:47.981Z,30.55
2023-05-20T05:55:51.482Z,30.74
2023-05-20T05:58:53.732Z,31.43
2023-05-20T06:01:56.267Z,31.55
2023-05-20T06:04:59.917Z,31.59
2023-05-20T06:08:02.055Z,31.42
2023-05-20T06:11:06.108Z,32.11
2023-05-20T06:14:10.804Z,31.72
2023-05-20T06:17:15.459Z,31.88
2023-05-20T06:20:20.210Z,31.75
2023-05-20T06:23:24.246Z,32.05
2023-05-20T06:26:27.532Z,31.81
2023-05-20T06:29:33.120Z,31.99
2023-05-20T06:32:37.560Z,32.13
2023-05-20T06:35:40.473Z,32.75
2023-05-20T06:38:42.821Z,33.21
2023-05-20T06:41:46.527Z,33.12
2023-05-20T06:44:55.088Z,32.88
2023-05-20T06:48:00.808Z,32.85
2023-05-20T06:51:02.998Z,32.81
2023-05-20T06:54:05.667Z,32.61
2023-05-20T06:57:11.666Z,32.79
2023-05-20T07:00:19.662Z,33.01
2023-05-20T07:03:23.413Z,32.81
2023-05-20T07:06:28.863Z,32.38
2023-05-20T07:09:31.017Z,32.45
2023-05-20T07:12:36.037Z,32.33
2023-05-20T07:15:39.235Z,32.03
2023-05-20T07:18:41.797Z,31.48
2023-05-20T07:21:43.916Z,31.75
2023-05-20T07:24:46.918Z,31.41
2023-05-20T07:27:49.815Z,31.75
2023-05-20T07:30:53.225Z,31.57
2023-05-20T07:33:56.738Z,32.25
2023-05-20T07:37:01.707Z,31.94
2023-05-20T07:40:05.445Z,30.94
2023-05-20T07:43:08.483Z,31.01
2023-05-20T07:46:12.075Z,31.29
2023-05-20T07:49:15.502Z,30.75
2023-05-20T07:52:20.521Z,31.19
2023-05-20T07:55:24.810Z,30.00
2023-05-20T07:58:27.825Z,29.84
2023-05-20T08:01:31.794Z,29.31
2023-05-20T08:04:35.300Z,28.85
2023-05-20T08:07:37.652Z,28.31
2023-05-20T08:10:40.088Z,27.56
2023-05-20T08:13:42.308Z,27.19
2023-05-20T08:16:45.098Z,27.00
2023-05-20T08:19:47.270Z,26.74
2023-05-20T08:22:49.702Z,26.62
2023-05-20T08:25:51.811Z,26.13
2023-05-20T08:28:54.794Z,25.70
2023-05-20T08:31:58.024Z,25.47
2023-05-20T08:35:04.350Z,25.45
2023-05-20T08:38:06.958Z,24.98
2023-05-20T08:41:09.453Z,25.26
2023-05-20T08:44:12.430Z,25.11
2023-05-20T08:47:15.027Z,24.86
2023-05-20T08:50:17.546Z,25.06
2023-05-20T08:53:22.097Z,25.11
2023-05-20T08:56:28.739Z,24.89
2023-05-20T08:59:35.782Z,24.87
2023-05-20T09:02:39.552Z,24.61
2023-05-20T09:05:41.962Z,24.86
2023-05-20T09:08:44.764Z,25.13
2023-05-20T09:11:47.198Z,25.39
2023-05-20T09:14:49.495Z,25.40
2023-05-20T09:17:51.977Z,25.30
2023-05-20T09:20:54.008Z,25.26
2023-05-20T09:23:59.337Z,25.37
2023-05-20T09:27:01.436Z,25.17
2023-05-20T09:30:07.033Z,25.03
2023-05-20T09:33:12.234Z,24.89
2023-05-20T09:36:16.608Z,24.86
2023-05-20T09:39:25.897Z,25.02
2023-05-20T09:42:37.388Z,25.33
2023-05-20T09:45:39.718Z,25.44
2023-05-20T09:48:42.092Z,25.65
2023-05-20T09:51:44.479Z,25.42
2023-05-20T09:54:48.490Z,25.44
2023-05-20T09:57:50.637Z,25.69
2023-05-20T10:00:54.107Z,25.57
2023-05-20T10:03:56.962Z,25.57
2023-05-20T10:07:20.924Z,25.34
2023-05-20T10:10:32.788Z,25.51
2023-05-20T10:13:53.933Z,25.61
2023-05-20T10:17:14.768Z,25.61
2023-05-20T10:20:17.027Z,25.61
2023-05-20T10:23:24.266Z,25.43
2023-05-20T10:26:34.688Z,25.46
2023-05-20T10:32:53.443Z,25.70
2023-05-20T10:35:59.732Z,26.01
2023-05-20T10:39:02.256Z,26.04
2023-05-20T10:42:11.296Z,25.86
2023-05-20T10:45:24.662Z,25.86
2023-05-20T10:48:34.287Z,25.66
2023-05-20T10:51:36.669Z,25.80
2023-05-20T10:54:48.762Z,25.80
2023-05-20T10:57:53.429Z,25.94
2023-05-20T11:00:56.282Z,26.00
2023-05-20T11:04:00.934Z,26.04
2023-05-20T11:07:03.523Z,26.20
2023-05-20T11:10:08.143Z,26.34
2023-05-20T11:13:12.352Z,26.27
2023-05-20T11:16:14.972Z,26.43
2023-05-20T11:19:18.903Z,26.32
2023-05-20T11:22:21.147Z,26.52
2023-05-20T11:25:23.844Z,26.54
2023-05-20T11:28:25.918Z,26.40
2023-05-20T11:31:31.996Z,26.30
2023-05-20T11:34:34.874Z,26.31
2023-05-20T11:37:37.235Z,26.43
2023-05-20T11:40:50.726Z,26.49
2023-05-20T11:44:00.150Z,26.32
2023-05-20T11:47:03.946Z,26.22
2023-05-20T11:50:06.676Z,26.36
2023-05-20T11:53:10.544Z,26.40
2023-05-20T11:56:14.416Z,26.44
2023-05-20T11:59:16.643Z,26.38
2023-05-20T12:02:19.137Z,26.51
2023-05-20T12:05:21.656Z,26.36
2023-05-20T12:08:23.754Z,26.27
2023-05-20T12:11:26.403Z,26.54
2023-05-20T12:14:28.531Z,26.44
2023-05-20T12:17:32.275Z,26.14
2023-05-20T12:20:34.665Z,26.04
2023-05-20T12:23:37.187Z,25.90
2023-05-20T12:26:39.246Z,25.94
2023-05-20T12:29:41.678Z,26.19
2023-05-20T12:32:43.985Z,26.27
2023-05-20T12:35:46.859Z,26.27
2023-05-20T12:38:49.004Z,26.17
2023-05-20T12:41:51.273Z,26.28
2023-05-20T12:44:53.412Z,26.44
2023-05-20T12:47:57.544Z,26.49
2023-05-20T12:50:59.920Z,26.59
2023-05-20T12:54:02.224Z,26.73
2023-05-20T12:57:05.247Z,26.62
2023-05-20T13:00:08.539Z,26.46
2023-05-20T13:03:11.681Z,26.30
2023-05-20T13:06:14.318Z,26.48
2023-05-20T13:09:16.592Z,26.46
2023-05-20T13:12:18.978Z,26.44
2023-05-20T13:15:21.042Z,26.46
2023-05-20T13:18:23.470Z,26.44
2023-05-20T13:21:25.457Z,26.43
2023-05-20T13:24:27.780Z,26.44
2023-05-20T13:27:29.758Z,26.62
2023-05-20T13:30:32.710Z,26.50
2023-05-20T13:33:34.989Z,26.46
2023-05-20T13:36:37.519Z,26.26
2023-05-20T13:39:39.754Z,26.18
2023-05-20T13:42:42.207Z,26.24
2023-05-20T13:45:44.477Z,26.46
2023-05-20T13:48:46.965Z,26.36
2023-05-20T13:51:49.035Z,26.25
2023-05-20T13:54:51.557Z,26.05
2023-05-20T13:57:54.346Z,25.64
2023-05-20T14:00:57.125Z,25.21
2023-05-20T14:03:59.673Z,25.04
2023-05-20T14:07:01.815Z,25.14
2023-05-20T14:10:04.313Z,25.33
2023-05-20T14:13:08.620Z,25.49
2023-05-20T14:16:11.350Z,25.50
2023-05-20T14:19:13.583Z,25.39
2023-05-20T14:22:16.113Z,25.28
2023-05-20T14:25:18.400Z,25.26
2023-05-20T14:28:20.765Z,25.28
2023-05-20T14:31:22.977Z,25.31
2023-05-20T14:34:25.338Z,25.30
2023-05-20T14:40:30.360Z,25.37
2023-05-20T14:43:32.560Z,25.28
2023-05-20T14:46:35.087Z,25.25
2023-05-20T14:49:39.174Z,25.20
2023-05-20T14:52:42.154Z,25.15
2023-05-20T14:55:44.220Z,25.19
2023-05-20T14:58:46.534Z,25.27
2023-05-20T15:01:48.770Z,25.20
2023-05-20T15:04:51.250Z,25.16
2023-05-20T15:07:53.370Z,25.13
2023-05-20T15:10:55.890Z,25.02
2023-05-20T15:13:58.952Z,24.94
2023-05-20T15:17:03.266Z,24.91
2023-05-20T15:20:05.852Z,24.86
2023-05-20T15:23:08.269Z,24.85
2023-05-20T15:26:13.472Z,24.85
2023-05-20T15:29:16.617Z,24.80
2023-05-20T15:32:19.907Z,24.73
2023-05-20T15:35:22.426Z,24.72
2023-05-20T15:38:24.533Z,24.85
2023-05-20T15:41:26.881Z,24.90
2023-05-20T15:44:29.717Z,24.87
2023-05-20T15:47:32.308Z,24.84
2023-05-20T15:50:37.894Z,24.95
2023-05-20T15:53:40.830Z,24.82
2023-05-20T15:56:43.060Z,24.68
2023-05-20T15:59:46.391Z,24.45
2023-05-20T16:02:48.802Z,24.39
2023-05-20T16:05:51.262Z,24.35
2023-05-20T16:08:53.277Z,24.54
2023-05-20T16:11:56.282Z,24.55
2023-05-20T16:14:59.556Z,24.51
2023-05-20T16:18:02.728Z,24.46
2023-05-20T16:21:07.435Z,24.29
2023-05-20T16:24:09.755Z,24.28
2023-05-20T16:27:11.809Z,24.17
2023-05-20T16:30:14.305Z,24.06
2023-05-20T16:33:17.359Z,24.03
2023-05-20T16:36:19.731Z,23.99
2023-05-20T16:39:21.754Z,23.91
2023-05-20T16:42:24.084Z,23.82
2023-05-20T16:45:26.265Z,23.78
2023-05-20T16:48:29.040Z,23.68
2023-05-20T16:51:31.418Z,23.62
2023-05-20T16:54:36.239Z,23.54
2023-05-20T16:57:38.360Z,23.58
2023-05-20T17:00:41.032Z,23.51
2023-05-20T17:03:43.366Z,23.42
2023-05-20T17:06:45.885Z,23.27
2023-05-20T17:09:48.165Z,23.09
2023-05-20T17:12:50.668Z,23.14
2023-05-20T17:15:52.767Z,23.03
2023-05-20T17:18:56.198Z,22.98
2023-05-20T17:21:58.309Z,23.02
2023-05-20T17:25:01.206Z,22.87
2023-05-20T17:28:03.308Z,22.84
2023-05-20T17:31:07.252Z,22.86
2023-05-20T17:34:09.492Z,22.75
2023-05-20T17:37:12.110Z,22.69
2023-05-20T17:40:14.235Z,22.57
2023-05-20T17:43:16.671Z,22.42
2023-05-20T17:46:18.703Z,22.30
2023-05-20T17:49:21.298Z,22.22
2023-05-20T17:52:23.384Z,22.11
2023-05-20T17:55:26.649Z,22.01
2023-05-20T17:58:31.096Z,21.89
2023-05-20T18:01:36.161Z,21.74
2023-05-20T18:04:38.562Z,21.61
2023-05-20T18:07:40.889Z,21.47
2023-05-20T18:10:43.173Z,21.39
2023-05-20T18:13:45.185Z,21.25
2023-05-20T18:16:47.512Z,21.09
2023-05-20T18:19:49.608Z,20.93
2023-05-20T18:22:58.145Z,20.76
2023-05-20T18:26:00.606Z,20.74
2023-05-20T18:29:03.402Z,20.69
2023-05-20T18:32:05.820Z,20.55
2023-05-20T18:35:08.754Z,20.58
2023-05-20T18:38:10.835Z,20.42
2023-05-20T18:41:13.496Z,20.29
2023-05-20T18:44:17.413Z,20.19
2023-05-20T18:47:22.549Z,20.12
2023-05-20T18:50:24.635Z,20.05
2023-05-20T18:53:29.287Z,19.97
2023-05-20T18:56:33.032Z,19.90
2023-05-20T18:59:36.642Z,19.84
2023-05-20T19:02:39.281Z,19.79
2023-05-20T19:05:41.768Z,19.78
2023-05-20T19:08:43.979Z,19.70
2023-05-20T19:11:48.647Z,19.66
2023-05-20T19:14:50.891Z,19.62
2023-05-20T19:17:53.598Z,19.63
2023-05-20T19:20:55.892Z,19.55
2023-05-20T19:23:58.224Z,19.47
2023-05-20T19:27:00.883Z,19.44
2023-05-20T19:30:03.631Z,19.39
2023-05-20T19:33:06.193Z,19.31
2023-05-20T19:36:10.773Z,19.27
2023-05-20T19:39:13.096Z,19.18
2023-05-20T19:42:15.828Z,19.22
2023-05-20T19:45:17.909Z,19.12
2023-05-20T19:48:22.249Z,19.20
2023-05-20T19:51:24.717Z,19.08
2023-05-20T19:54:27.175Z,19.00
2023-05-20T19:57:29.197Z,18.99
2023-05-20T20:00:32.279Z,18.96
2023-05-20T20:03:34.561Z,18.89
2023-05-20T20:06:37.155Z,18.87
2023-05-20T20:09:41.716Z,18.81
2023-05-20T20:12:43.716Z,18.80
2023-05-20T20:15:47.580Z,18.92
2023-05-20T20:18:49.699Z,18.95
2023-05-20T20:21:53.142Z,18.87
2023-05-20T20:24:55.352Z,18.93
2023-05-20T20:27:57.708Z,18.86
2023-05-20T20:31:01.080Z,18.83
2023-05-20T20:34:04.852Z,18.83
2023-05-20T20:37:07.055Z,18.83
2023-05-20T20:40:15.228Z,18.78
2023-05-20T20:43:21.504Z,18.82
2023-05-20T20:46:24.088Z,18.79
2023-05-20T20:49:28.451Z,18.72
2023-05-20T20:52:32.237Z,18.66
2023-05-20T20:55:34.649Z,18.69
2023-05-20T20:58:38.883Z,18.69
2023-05-20T21:01:44.891Z,18.71
2023-05-20T21:04:48.827Z,18.62
2023-05-20T21:07:58.315Z,18.68
2023-05-20T21:11:01.516Z,18.80
2023-05-20T21:14:05.171Z,18.71
2023-05-20T21:17:07.707Z,18.73
2023-05-20T21:20:12.670Z,18.70
2023-05-20T21:23:16.710Z,18.64
2023-05-20T21:26:21.221Z,18.56
2023-05-20T21:29:25.832Z,18.63
2023-05-20T21:32:28.132Z,18.62
2023-05-20T21:35:32.001Z,18.75
2023-05-20T21:38:36.455Z,18.69
2023-05-20T21:41:38.848Z,18.64
2023-05-20T21:44:40.969Z,18.58
2023-05-20T21:47:43.897Z,18.56
2023-05-20T21:50:46.125Z,18.55
2023-05-20T21:53:48.466Z,18.55
2023-05-20T21:56:51.573Z,18.46
2023-05-20T21:59:53.991Z,18.61
2023-05-20T22:02:56.065Z,18.50
2023-05-20T22:05:58.615Z,18.48
2023-05-20T22:09:00.703Z,18.35
2023-05-20T22:12:05.102Z,18.40
2023-05-20T22:15:07.469Z,18.36
2023-05-20T22:18:12.264Z,18.32
2023-05-20T22:21:15.772Z,18.32
2023-05-20T22:24:18.294Z,18.34
2023-05-20T22:27:21.255Z,18.30
2023-05-20T22:30:24.404Z,18.28
2023-05-20T22:33:26.799Z,18.14
2023-05-20T22:36:34.043Z,18.14
2023-05-20T22:39:37.597Z,18.24
2023-05-20T22:42:40.056Z,18.08
2023-05-20T22:45:42.602Z,18.06
2023-05-20T22:48:45.254Z,18.10
2023-05-20T22:51:49.599Z,18.13
2023-05-20T22:54:54.608Z,18.11
2023-05-20T22:57:56.614Z,18.08
2023-05-20T23:01:00.025Z,18.10
2023-05-20T23:04:02.226Z,18.06
2023-05-20T23:07:05.629Z,18.03
2023-05-20T23:10:07.881Z,18.02
2023-05-20T23:13:10.372Z,17.87
2023-05-20T23:16:12.535Z,17.86
2023-05-20T23:19:15.121Z,17.86
2023-05-20T23:22:17.361Z,17.86
2023-05-20T23:25:21.884Z,17.86
2023-05-20T23:28:24.012Z,17.86
2023-05-20T23:31:26.969Z,17.79
2023-05-20T23:34:30.839Z,17.77
2023-05-20T23:37:34.576Z,17.78
2023-05-20T23:40:36.616Z,17.75
2023-05-20T23:43:38.988Z,17.74
2023-05-20T23:46:41.890Z,17.62
2023-05-20T23:49:47.856Z,17.65
2023-05-20T23:52:52.249Z,17.47
2023-05-20T23:55:59.229Z,17.42
2023-05-20T23:59:01.444Z,17.41
